Time;durP1;ratioP1;P1;durP2;ratioP2;P2;SDS_P1;SDS_P2;PMS_P1;PMS_P2;Temp;Humidity;BMP_temperature;BMP_pressure;BME280_temperature;BME280_humidity;BME280_pressure;Samples;Min_cycle;Max_cycle;Signal;HPM_P1;HPM_P2
2024/01/28 00:01:00;;;;;;;;;27.33;24.67;;;;;4.24;68.64;102900.41;2047119;27;3585680;-75
2024/01/28 00:02:12;;;;;;;;;22.67;21.33;;;;;4.23;68.22;102895.13;2043076;27;3565917;-75
2024/01/28 00:03:24;;;;;;;;;23.00;21.67;;;;;4.22;68.80;102896.84;2049504;27;3575239;-75
2024/01/28 00:04:35;;;;;;;;;21.00;18.00;;;;;4.21;68.99;102895.09;2057872;27;2830482;-75
2024/01/28 00:05:47;;;;;;;;;25.80;23.60;;;;;4.21;68.49;102889.00;2032516;27;3585608;-76
2024/01/28 00:06:59;;;;;;;;;25.33;24.00;;;;;4.20;68.39;102895.91;2048335;27;3561103;-75
2024/01/28 00:08:11;;;;;;;;;25.67;23.67;;;;;4.18;68.79;102887.19;2043036;27;3583596;-75
2024/01/28 00:09:23;;;;;;;;;23.67;23.67;;;;;4.18;68.51;102884.56;2046854;27;3585668;-75
2024/01/28 00:10:35;;;;;;;;;27.33;23.67;;;;;4.16;68.67;102886.25;2048524;27;3596076;-76
2024/01/28 00:11:48;;;;;;;;;20.17;15.33;;;;;4.16;69.09;102886.25;2057105;27;1837821;-76
2024/01/28 00:13:00;;;;;;;;;27.00;24.00;;;;;4.15;68.98;102887.09;2015235;27;3587732;-75
2024/01/28 00:14:12;;;;;;;;;25.33;21.00;;;;;4.14;68.88;102888.84;2056751;27;3589856;-75
2024/01/28 00:15:24;;;;;;;;;23.00;21.80;;;;;4.13;68.85;102881.84;2063902;27;3568954;-75
2024/01/28 00:16:36;;;;;;;;;27.33;22.33;;;;;4.13;69.12;102879.25;2053068;27;3577352;-75
2024/01/28 00:17:47;;;;;;;;;20.00;17.33;;;;;4.12;69.05;102880.09;2054642;27;3558576;-75
2024/01/28 00:19:00;;;;;;;;;26.00;22.33;;;;;4.12;68.97;102867.09;2054750;27;3580431;-76
2024/01/28 00:20:11;;;;;;;;;26.33;22.00;;;;;4.11;69.06;102874.84;2038286;27;3574194;-75
2024/01/28 00:21:24;;;;;;;;;24.67;22.67;;;;;4.10;68.90;102860.06;2054518;27;3573173;-75
2024/01/28 00:22:35;;;;;;;;;24.00;21.50;;;;;4.10;68.95;102857.47;2035882;27;2837777;-75
2024/01/28 00:23:47;;;;;;;;;24.00;19.33;;;;;4.10;68.78;102860.94;2053777;27;3562720;-75
2024/01/28 00:24:59;;;;;;;;;24.00;20.00;;;;;4.10;68.77;102849.66;2049313;27;3575240;-75
2024/01/28 00:26:10;;;;;;;;;24.67;21.00;;;;;4.09;68.94;102843.56;2027176;27;3575236;-75
2024/01/28 00:27:23;;;;;;;;;21.40;19.20;;;;;4.08;69.00;102835.69;2055252;27;3561674;-75
2024/01/28 00:28:34;;;;;;;;;18.00;16.33;;;;;4.07;69.07;102832.22;2050598;27;3551283;-75
2024/01/28 00:29:46;;;;;;;;;21.00;17.67;;;;;4.07;69.29;102826.13;2055084;27;2831519;-75
2024/01/28 00:30:57;;;;;;;;;28.00;21.00;;;;;4.07;69.23;102833.94;2025349;27;2843338;-75
2024/01/28 00:32:08;;;;;;;;;23.67;21.00;;;;;4.05;69.28;102832.16;2020462;27;3561747;-75
2024/01/28 00:33:20;;;;;;;;;26.00;20.00;;;;;4.05;69.08;102826.97;2053855;27;3587716;-75
2024/01/28 00:34:32;;;;;;;;;23.67;21.00;;;;;4.04;68.90;102825.22;2049459;27;3582550;-75
2024/01/28 00:35:44;;;;;;;;;24.67;19.00;;;;;4.04;69.04;102824.31;2051077;27;3557532;-76
2024/01/28 00:36:56;;;;;;;;;24.67;22.00;;;;;4.03;69.01;102828.66;2045116;27;3576308;-76
2024/01/28 00:38:07;;;;;;;;;26.00;18.00;;;;;4.03;68.63;102826.03;2046548;27;2839868;-76
2024/01/28 00:39:19;;;;;;;;;22.67;20.00;;;;;4.04;69.14;102832.13;2027991;27;3573163;-76
2024/01/28 00:40:31;;;;;;;;;24.20;20.80;;;;;4.03;69.37;102833.84;2066671;27;1844062;-76
2024/01/28 00:41:43;;;;;;;;;22.33;20.33;;;;;4.01;69.34;102830.31;2039985;27;3572143;-76
2024/01/28 00:42:56;;;;;;;;;24.00;22.33;;;;;4.00;69.58;102825.94;2057346;27;3586717;-76
2024/01/28 00:44:06;;;;;;;;;28.00;23.50;;;;;4.01;68.90;102835.53;2044278;27;2857563;-75
2024/01/28 00:45:18;;;;;;;;;21.33;21.00;;;;;4.00;68.91;102838.09;2035636;27;3567901;-75
2024/01/28 00:46:32;;;;;;;;;24.00;21.00;;;;;4.00;68.89;102838.09;2059356;27;3575240;-75
2024/01/28 00:47:44;;;;;;;;;26.33;23.67;;;;;3.98;69.07;102843.25;2029752;27;3574218;-75
2024/01/28 00:48:55;;;;;;;;;21.67;20.67;;;;;3.97;68.90;102849.31;2033365;27;3562787;-75
2024/01/28 00:50:08;;;;;;;;;23.67;20.67;;;;;3.97;69.26;102844.09;2059180;27;3566977;-75
2024/01/28 00:51:19;;;;;;;;;25.67;21.00;;;;;3.96;69.09;102844.94;2043326;27;3581482;-75
2024/01/28 00:52:31;;;;;;;;;24.33;21.00;;;;;3.95;69.17;102840.56;2066233;27;3572115;-76
2024/01/28 00:53:44;;;;;;;;;24.20;22.00;;;;;3.93;68.39;102837.91;2077158;27;1833085;-75
2024/01/28 00:54:55;;;;;;;;;20.67;18.00;;;;;3.92;69.17;102838.75;2039934;27;2829523;-75
2024/01/28 00:56:09;;;;;;;;;21.83;19.33;;;;;3.91;68.96;102839.59;2070814;27;1848797;-75
2024/01/28 00:57:20;;;;;;;;;25.67;21.67;;;;;3.90;68.77;102831.75;2016034;27;3565888;-75
2024/01/28 00:58:33;;;;;;;;;28.67;22.33;;;;;3.91;69.18;102838.69;2058923;27;3588793;-75
2024/01/28 00:59:44;;;;;;;;;19.33;18.00;;;;;3.89;69.01;102835.19;2040464;27;3558597;-75
2024/01/28 01:00:56;;;;;;;;;19.67;17.00;;;;;3.88;68.91;102834.28;2056519;27;2825383;-75
2024/01/28 01:02:07;;;;;;;;;22.00;20.67;;;;;3.86;68.94;102830.75;2024117;28;3577346;-75
2024/01/28 01:03:19;;;;;;;;;23.67;17.33;;;;;3.86;69.09;102828.16;2047812;27;2830557;-75
2024/01/28 01:04:31;;;;;;;;;22.67;19.00;;;;;3.86;69.08;102835.06;2040100;27;3576278;-75
2024/01/28 01:05:44;;;;;;;;;23.00;20.33;;;;;3.83;68.94;102820.25;2058010;27;3570100;-75
2024/01/28 01:06:56;;;;;;;;;24.40;21.40;;;;;3.83;69.18;102826.34;2060298;27;2834597;-75
2024/01/28 01:08:08;;;;;;;;;26.33;23.67;;;;;3.81;68.70;102817.63;2034630;27;3578891;-75
2024/01/28 01:09:20;;;;;;;;;25.33;22.67;;;;;3.80;68.50;102821.06;2050512;27;3566902;-75
2024/01/28 01:10:32;;;;;;;;;28.33;23.00;;;;;3.79;68.86;102819.31;2051986;27;3583581;-75
2024/01/28 01:11:44;;;;;;;;;25.00;24.00;;;;;3.79;69.20;102818.41;2057801;27;3591934;-75
2024/01/28 01:12:55;;;;;;;;;22.33;20.67;;;;;3.77;68.73;102818.38;2056714;27;3572222;-75
2024/01/28 01:14:07;;;;;;;;;25.33;19.67;;;;;3.76;68.73;102824.41;2052033;27;3579429;-75
2024/01/28 01:15:19;;;;;;;;;26.67;24.00;;;;;3.76;68.77;102823.53;2052941;27;3592951;-75
2024/01/28 01:16:31;;;;;;;;;24.00;20.00;;;;;3.73;68.66;102819.09;2052225;27;3582543;-75
2024/01/28 01:17:44;;;;;;;;;24.67;19.00;;;;;3.71;68.74;102815.59;2050082;27;3562744;-75
2024/01/28 01:18:57;;;;;;;;;25.00;20.50;;;;;3.70;68.60;102813.84;2058008;27;1841999;-75
2024/01/28 01:20:09;;;;;;;;;24.33;22.67;;;;;3.69;68.71;102815.53;2008767;27;3564815;-75
2024/01/28 01:21:21;;;;;;;;;20.00;18.00;;;;;3.68;69.10;102816.38;2041483;27;3562768;-75
2024/01/28 01:22:33;;;;;;;;;27.33;22.67;;;;;3.66;68.66;102814.56;2057077;27;3589894;-75
2024/01/28 01:23:44;;;;;;;;;25.80;19.80;;;;;3.65;68.88;102805.91;2063346;27;1842042;-75
2024/01/28 01:24:56;;;;;;;;;29.67;22.67;;;;;3.64;68.93;102813.63;2037796;27;3603395;-75
2024/01/28 01:26:09;;;;;;;;;24.33;20.33;;;;;3.62;69.19;102810.13;2043981;27;3585662;-75
2024/01/28 01:27:20;;;;;;;;;22.67;18.67;;;;;3.62;68.73;102812.72;2024991;27;2832639;-75
2024/01/28 01:28:32;;;;;;;;;23.33;19.00;;;;;3.60;68.47;102813.53;2032104;27;2836787;-75
2024/01/28 01:29:43;;;;;;;;;24.00;20.67;;;;;3.59;68.58;102816.09;2035933;27;3580456;-75
2024/01/28 01:30:55;;;;;;;;;25.00;22.33;;;;;3.58;69.23;102811.75;2060379;27;3577697;-75
2024/01/28 01:32:07;;;;;;;;;21.00;20.00;;;;;3.56;68.86;102814.28;2052021;27;3565885;-75
2024/01/28 01:33:19;;;;;;;;;25.33;22.00;;;;;3.56;69.01;102816.88;2048482;27;3583576;-75
2024/01/28 01:34:31;;;;;;;;;25.33;19.67;;;;;3.55;68.76;102815.16;2055379;27;3585743;-75
2024/01/28 01:35:44;;;;;;;;;29.00;25.00;;;;;3.55;68.67;102815.16;2056468;27;3597126;-75
2024/01/28 01:36:57;;;;;;;;;23.83;20.00;;;;;3.54;68.80;102813.38;2043917;27;1847745;-75
2024/01/28 01:38:09;;;;;;;;;22.67;19.67;;;;;3.55;69.44;102811.66;2014271;27;3579403;-75
2024/01/28 01:39:21;;;;;;;;;20.00;17.00;;;;;3.53;69.34;102806.38;2048812;27;3554414;-75
2024/01/28 01:40:33;;;;;;;;;23.50;21.33;;;;;3.52;69.25;102799.44;2065101;27;2831894;-75
2024/01/28 01:41:45;;;;;;;;;23.67;21.00;;;;;3.53;69.27;102798.59;2027107;27;3575252;-75
2024/01/28 01:42:57;;;;;;;;;24.33;21.67;;;;;3.51;68.81;102795.06;2049169;27;2835783;-75
2024/01/28 01:44:09;;;;;;;;;19.33;19.00;;;;;3.51;69.03;102800.25;2031892;27;3566897;-75
2024/01/28 01:45:20;;;;;;;;;20.67;20.00;;;;;3.51;68.92;102791.59;2051882;27;3567952;-75
2024/01/28 01:46:32;;;;;;;;;21.75;19.00;;;;;3.50;69.07;102790.72;2070621;27;1841990;-75
2024/01/28 01:47:44;;;;;;;;;25.00;20.00;;;;;3.50;69.31;102790.72;2017115;27;3576285;-75
2024/01/28 01:48:57;;;;;;;;;23.00;19.67;;;;;3.50;69.29;102798.53;2037850;27;3570550;-75
2024/01/28 01:50:10;;;;;;;;;28.67;24.33;;;;;3.49;69.44;102799.34;2029345;27;3591912;-75
2024/01/28 01:51:23;;;;;;;;;29.33;24.00;;;;;3.48;69.78;102792.41;2039521;27;3591910;-75
2024/01/28 01:52:34;;;;;;;;;28.00;23.33;;;;;3.47;69.15;102788.00;2016834;27;3604420;-75
2024/01/28 01:53:46;;;;;;;;;21.67;21.67;;;;;3.47;69.10;102786.31;2042853;27;3578376;-75
2024/01/28 01:54:57;;;;;;;;;18.50;16.00;;;;;3.47;69.25;102788.00;2051143;27;2815878;-75
2024/01/28 01:56:10;;;;;;;;;25.00;20.00;;;;;3.46;69.71;102781.94;2017257;27;3576241;-75
2024/01/28 01:57:22;;;;;;;;;20.00;18.33;;;;;3.46;69.61;102788.84;2038652;27;2826394;-75
2024/01/28 01:58:34;;;;;;;;;25.67;21.33;;;;;3.46;69.55;102783.63;2040567;27;3573157;-75
2024/01/28 01:59:46;;;;;;;;;24.00;20.33;;;;;3.46;69.50;102783.63;2038747;27;3575236;-75
2024/01/28 02:00:59;;;;;;;;;22.00;18.33;;;;;3.46;69.57;102783.63;2034835;27;2827530;-75
2024/01/28 02:02:12;;;;;;;;;24.33;19.33;;;;;3.45;69.36;102779.28;2053358;27;1840944;-75
2024/01/28 02:03:28;;;;;;;;;18.83;16.83;;;;;3.45;69.27;102781.91;2030752;27;1842037;-75
2024/01/28 02:04:43;;;;;;;;;19.50;18.33;;;;;3.45;69.14;102779.28;2034554;27;1836752;-75
2024/01/28 02:05:55;;;;;;;;;23.00;19.67;;;;;3.45;69.75;102781.91;2010313;27;3570622;-75
2024/01/28 02:07:07;;;;;;;;;19.80;16.40;;;;;3.46;69.96;102788.84;2051602;27;1838859;-75
2024/01/28 02:08:17;;;;;;;;;16.33;11.33;;;;;3.45;69.18;102774.97;1996333;27;3560657;-75
2024/01/28 02:09:31;;;;;;;;;22.17;20.33;;;;;3.47;69.89;102780.22;2048832;27;2824207;-75
2024/01/28 02:10:46;;;;;;;;;22.57;20.14;;;;;3.46;69.98;102774.13;2036329;27;1844603;-75
2024/01/28 02:11:58;;;;;;;;;25.00;19.80;;;;;3.47;70.06;102769.81;2060016;27;2846054;-75
2024/01/28 02:13:11;;;;;;;;;21.17;18.33;;;;;3.46;69.79;102768.03;2056712;27;2825221;-75
2024/01/28 02:14:29;;;;;;;;;17.50;17.00;;;;;3.47;69.65;102769.81;2032825;27;2811704;-75
2024/01/28 02:15:42;;;;;;;;;18.67;17.67;;;;;3.48;69.70;102766.41;2039770;27;1842002;-75
2024/01/28 02:16:59;;;;;;;;;23.20;17.80;;;;;3.48;70.29;102771.59;2033510;27;2834600;-75
2024/01/28 02:18:09;;;;;;;;;18.00;14.00;;;;;3.48;69.83;102764.66;2006813;27;2802302;-76
2024/01/28 02:19:21;;;;;;;;;19.00;16.00;;;;;3.49;70.10;102768.13;2034095;27;2829495;-75
2024/01/28 02:20:32;;;;;;;;;18.50;18.00;;;;;3.49;70.18;102762.94;2038152;27;2820396;-75
2024/01/28 02:21:43;;;;;;;;;17.50;17.50;;;;;3.49;70.02;102757.75;2028336;27;2824248;-75
2024/01/28 02:22:54;;;;;;;;;19.00;18.00;;;;;3.48;70.20;102758.59;2014183;27;2829810;-75
2024/01/28 02:24:05;;;;;;;;;18.50;16.50;;;;;3.49;69.95;102758.63;2017313;28;2819054;-75
2024/01/28 02:25:16;;;;;;;;;19.00;17.00;;;;;3.50;70.30;102759.50;2025299;27;2816971;-75
2024/01/28 02:26:28;;;;;;;;;19.60;15.20;;;;;3.50;70.11;102756.91;2033987;27;1837741;-75
2024/01/28 02:27:40;;;;;;;;;19.00;16.00;;;;;3.51;69.72;102756.06;2031517;27;2827890;-75
2024/01/28 02:28:51;;;;;;;;;17.00;15.00;;;;;3.52;69.86;102754.34;2018141;27;2802318;-75
2024/01/28 02:30:03;;;;;;;;;16.75;12.00;;;;;3.51;70.01;102756.06;2045312;27;1829488;-75
2024/01/28 02:31:13;;;;;;;;;19.00;16.00;;;;;3.51;69.75;102758.66;2011627;27;2835051;-75
2024/01/28 02:32:24;;;;;;;;;15.00;11.00;;;;;3.51;69.85;102756.06;2024099;27;2787778;-75
2024/01/28 02:33:35;;;;;;;;;23.50;19.50;;;;;3.52;69.54;102756.94;2050394;27;2837769;-75
2024/01/28 02:34:46;;;;;;;;;13.00;12.00;;;;;3.52;69.56;102757.84;2033320;27;2790880;-75
2024/01/28 02:35:57;;;;;;;;;14.50;14.50;;;;;3.52;69.58;102757.84;2032267;27;2792052;-75
2024/01/28 02:37:10;;;;;;;;;14.50;11.00;;;;;3.52;69.69;102760.44;2052519;27;2783577;-75
2024/01/28 02:38:21;;;;;;;;;23.00;17.00;;;;;3.51;70.02;102758.66;2034686;27;2830415;-75
2024/01/28 02:39:32;;;;;;;;;18.50;16.50;;;;;3.52;70.11;102757.84;2023202;27;2827337;-75
2024/01/28 02:40:43;;;;;;;;;16.33;16.00;;;;;3.53;69.81;102754.38;2035617;27;1846171;-75
2024/01/28 02:41:54;;;;;;;;;16.25;16.00;;;;;3.52;69.77;102752.63;2034281;27;1846627;-75
2024/01/28 02:43:06;;;;;;;;;12.50;12.00;;;;;3.51;69.97;102745.66;2044503;27;2784655;-75
2024/01/28 02:44:16;;;;;;;;;15.50;15.50;;;;;3.51;69.84;102750.84;2014557;27;2803384;-75
2024/01/28 02:45:27;;;;;;;;;19.00;14.33;;;;;3.52;69.85;102742.22;2044037;27;1854492;-75
2024/01/28 02:46:37;;;;;;;;;14.50;11.50;;;;;3.52;69.75;102747.44;2014502;27;2784048;-75
2024/01/28 02:47:49;;;;;;;;;12.67;9.33;;;;;3.51;70.05;102743.06;2050525;27;1831574;-75
2024/01/28 02:49:00;;;;;;;;;16.00;13.00;;;;;3.52;70.38;102736.16;2037796;27;2812762;-75
2024/01/28 02:50:10;;;;;;;;;15.50;13.00;;;;;3.53;69.73;102743.13;2015357;27;2797121;-75
2024/01/28 02:51:21;;;;;;;;;19.00;13.25;;;;;3.52;70.30;102744.84;2067835;27;1833730;-75
2024/01/28 02:52:35;;;;;;;;;14.17;12.50;;;;;3.52;70.23;102741.34;2049241;27;1827903;-75
2024/01/28 02:53:45;;;;;;;;;14.00;12.00;;;;;3.52;69.68;102751.75;2008768;27;2796128;-75
2024/01/28 02:54:56;;;;;;;;;15.00;13.00;;;;;3.52;70.28;102743.94;2028461;27;2800758;-75
2024/01/28 02:56:08;;;;;;;;;12.75;11.00;;;;;3.52;70.37;102747.44;2068072;27;1848190;-75
2024/01/28 02:57:18;;;;;;;;;14.50;13.00;;;;;3.52;70.04;102741.34;2039184;27;2786710;-75
2024/01/28 02:58:30;;;;;;;;;18.00;17.00;;;;;3.51;69.91;102740.47;2059455;27;1831547;-75
2024/01/28 02:59:41;;;;;;;;;16.00;14.00;;;;;3.51;70.23;102743.06;2019360;27;2804426;-75
2024/01/28 03:00:52;;;;;;;;;18.00;16.00;;;;;3.51;70.33;102740.47;2051614;27;2818002;-75
2024/01/28 03:02:03;;;;;;;;;18.00;16.00;;;;;3.52;70.16;102738.75;2020613;27;2823131;-75
2024/01/28 03:03:15;;;;;;;;;17.00;17.00;;;;;3.50;70.45;102736.13;2057164;27;1841981;-75
2024/01/28 03:04:25;;;;;;;;;20.00;16.50;;;;;3.51;69.70;102735.25;2030276;27;2838164;-75
2024/01/28 03:05:37;;;;;;;;;16.25;13.50;;;;;3.51;70.13;102732.66;2038686;27;1849287;-75
2024/01/28 03:06:48;;;;;;;;;16.33;12.33;;;;;3.51;70.49;102727.47;2038837;27;3526323;-75
2024/01/28 03:07:59;;;;;;;;;20.00;13.00;;;;;3.52;70.14;102729.22;2036425;27;2807589;-75
2024/01/28 03:09:10;;;;;;;;;19.00;14.00;;;;;3.51;69.93;102724.00;2023382;27;2815847;-75
2024/01/28 03:10:21;;;;;;;;;19.00;13.00;;;;;3.51;70.55;102724.84;2023903;27;2807552;-75
2024/01/28 03:11:32;;;;;;;;;14.00;13.00;;;;;3.51;69.71;102719.66;2058603;27;2808640;-75
2024/01/28 03:12:43;;;;;;;;;17.50;13.50;;;;;3.52;70.30;102711.03;2032533;27;2799180;-75
2024/01/28 03:13:54;;;;;;;;;16.00;16.00;;;;;3.52;69.97;102707.53;2041018;27;2815941;-75
2024/01/28 03:15:06;;;;;;;;;11.67;11.00;;;;;3.52;70.24;102716.22;2025133;27;1846116;-75
2024/01/28 03:16:17;;;;;;;;;16.00;13.75;;;;;3.53;70.66;102711.91;2020368;27;1844062;-75
2024/01/28 03:17:28;;;;;;;;;18.00;13.00;;;;;3.54;70.67;102724.94;2024891;27;2807526;-75
2024/01/28 03:18:39;;;;;;;;;18.00;17.50;;;;;3.54;70.50;102711.94;2027863;27;2821096;-75
2024/01/28 03:19:50;;;;;;;;;13.00;12.00;;;;;3.54;70.70;102718.88;2037964;27;2789834;-75
2024/01/28 03:21:02;;;;;;;;;15.00;13.25;;;;;3.54;70.39;102704.16;2033094;27;1851059;-75
2024/01/28 03:22:12;;;;;;;;;17.00;16.00;;;;;3.54;70.69;102698.94;2031629;27;2818986;-75
2024/01/28 03:23:23;;;;;;;;;13.00;12.50;;;;;3.55;70.74;102699.84;2028607;27;2794017;-75
2024/01/28 03:24:35;;;;;;;;;12.00;12.00;;;;;3.55;70.65;102687.72;2058304;27;2784619;-75
2024/01/28 03:25:45;;;;;;;;;13.00;12.00;;;;;3.56;70.41;102699.88;2029518;27;2800267;-75
2024/01/28 03:26:56;;;;;;;;;11.33;9.67;;;;;3.56;70.45;102692.06;2033343;27;1837789;-75
2024/01/28 03:28:07;;;;;;;;;13.67;9.00;;;;;3.57;70.25;102693.84;2037621;27;2757612;-75
2024/01/28 03:29:19;;;;;;;;;19.50;14.00;;;;;3.55;70.11;102695.53;2054094;27;2813808;-75
2024/01/28 03:30:29;;;;;;;;;11.00;11.00;;;;;3.57;70.74;102692.97;2065065;27;1839844;-75
2024/01/28 03:31:40;;;;;;;;;15.50;14.00;;;;;3.58;70.27;102690.38;2032755;27;2800298;-75
2024/01/28 03:32:52;;;;;;;;;11.25;10.75;;;;;3.57;70.73;102698.16;2063052;27;1841949;-75
2024/01/28 03:34:04;;;;;;;;;19.00;15.25;;;;;3.57;70.13;102691.25;2038650;27;1857529;-75
2024/01/28 03:35:14;;;;;;;;;18.00;16.00;;;;;3.57;70.59;102687.75;2034997;27;2829708;-75
2024/01/28 03:36:25;;;;;;;;;15.50;13.00;;;;;3.57;70.09;102682.56;2025036;27;2793282;-75
2024/01/28 03:37:37;;;;;;;;;19.00;13.00;;;;;3.57;69.88;102695.56;2053264;27;2807031;-75
2024/01/28 03:38:48;;;;;;;;;16.00;13.25;;;;;3.56;70.54;102692.06;2051318;27;1835740;-75
2024/01/28 03:39:58;;;;;;;;;15.00;13.00;;;;;3.56;70.56;102686.88;2024004;27;2797590;-75
2024/01/28 03:41:09;;;;;;;;;18.50;15.50;;;;;3.56;70.04;102692.06;2050412;27;2807562;-75
2024/01/28 03:42:22;;;;;;;;;14.00;11.50;;;;;3.56;70.08;102694.66;2030710;27;2779409;-75
2024/01/28 03:43:32;;;;;;;;;20.00;16.00;;;;;3.55;70.64;102685.13;2026638;27;2847156;-75
2024/01/28 03:44:43;;;;;;;;;17.50;15.00;;;;;3.56;70.73;102685.97;2018698;27;2807507;-75
2024/01/28 03:45:54;;;;;;;;;13.33;13.33;;;;;3.55;70.11;102685.13;2050311;27;3522133;-75
2024/01/28 03:47:05;;;;;;;;;12.00;12.00;;;;;3.56;70.73;102685.97;2046403;27;2787771;-75
2024/01/28 03:48:16;;;;;;;;;16.00;11.00;;;;;3.55;70.65;102679.91;2047928;27;2796163;-75
2024/01/28 03:49:27;;;;;;;;;15.00;11.00;;;;;3.54;70.82;102678.16;2054266;27;2787786;-75
2024/01/28 03:50:38;;;;;;;;;20.00;16.50;;;;;3.56;70.12;102683.38;2046641;27;2815915;-75
2024/01/28 03:51:49;;;;;;;;;16.00;12.33;;;;;3.56;70.75;102686.88;2028283;27;3519994;-75
2024/01/28 03:53:00;;;;;;;;;12.67;12.67;;;;;3.57;70.66;102685.16;2062624;27;1841945;-75
2024/01/28 03:54:11;;;;;;;;;17.00;17.00;;;;;3.55;70.35;102681.63;2008527;27;2812079;-75
2024/01/28 03:55:22;;;;;;;;;19.00;14.00;;;;;3.54;70.39;102683.34;2030441;27;2797098;-75
2024/01/28 03:56:34;;;;;;;;;12.75;12.75;;;;;3.55;70.15;102682.53;2037560;27;1844163;-75
2024/01/28 03:57:45;;;;;;;;;17.00;16.50;;;;;3.54;70.48;102685.06;2040047;27;2825738;-75
2024/01/28 03:58:56;;;;;;;;;12.50;12.50;;;;;3.55;70.65;102679.03;2029731;27;2787732;-75
2024/01/28 04:00:07;;;;;;;;;17.00;15.00;;;;;3.55;70.24;102679.03;2054422;27;2798180;-75
2024/01/28 04:01:18;;;;;;;;;13.50;13.50;;;;;3.54;70.41;102680.75;2033785;27;2789950;-75
2024/01/28 04:02:29;;;;;;;;;16.40;15.20;;;;;3.55;70.68;102679.03;2059700;27;1839926;-75
2024/01/28 04:03:41;;;;;;;;;16.50;12.75;;;;;3.55;70.67;102679.91;2049753;27;1839872;-75
2024/01/28 04:04:52;;;;;;;;;17.00;15.75;;;;;3.55;70.30;102676.44;2053888;27;1846666;-75
2024/01/28 04:06:03;;;;;;;;;16.50;12.00;;;;;3.55;70.22;102674.72;2026282;27;2800648;-75
2024/01/28 04:07:15;;;;;;;;;19.60;13.20;;;;;3.53;70.44;102671.16;2064061;27;1824289;-75
2024/01/28 04:08:25;;;;;;;;;17.00;15.00;;;;;3.52;70.45;102676.34;2037126;27;2816943;-75
2024/01/28 04:09:39;;;;;;;;;17.50;13.00;;;;;3.53;70.06;102676.38;2033027;27;2808615;-75
2024/01/28 04:10:50;;;;;;;;;14.50;14.50;;;;;3.53;70.51;102676.38;2003228;27;2789821;-75
2024/01/28 04:12:01;;;;;;;;;14.50;14.00;;;;;3.53;70.29;102673.78;2017930;27;2804948;-75
2024/01/28 04:13:15;;;;;;;;;14.50;12.17;;;;;3.53;70.10;102673.78;2054268;27;1821124;-75
2024/01/28 04:14:28;;;;;;;;;16.17;16.17;;;;;3.53;70.18;102673.78;2038423;27;1829468;-75
2024/01/28 04:15:38;;;;;;;;;17.50;14.00;;;;;3.53;70.11;102671.16;2016025;27;2802445;-75
2024/01/28 04:16:50;;;;;;;;;18.50;15.00;;;;;3.53;70.37;102671.16;2069072;27;1823207;-75
2024/01/28 04:18:01;;;;;;;;;14.50;14.50;;;;;3.53;70.54;102670.31;2028805;27;1846133;-75
2024/01/28 04:19:11;;;;;;;;;17.50;15.00;;;;;3.53;70.42;102667.72;2039737;27;2826361;-75
2024/01/28 04:20:22;;;;;;;;;20.00;16.00;;;;;3.53;70.25;102665.13;2022781;27;2818982;-75
2024/01/28 04:21:34;;;;;;;;;17.00;15.50;;;;;3.51;70.24;102662.44;2042708;27;2831519;-75
2024/01/28 04:22:44;;;;;;;;;17.50;12.00;;;;;3.53;70.78;102665.13;2018045;27;2799673;-75
2024/01/28 04:23:56;;;;;;;;;16.00;13.50;;;;;3.53;70.68;102663.38;2057592;27;2802853;-75
2024/01/28 04:25:07;;;;;;;;;16.50;13.50;;;;;3.53;70.36;102660.78;2039687;27;2795074;-75
2024/01/28 04:26:19;;;;;;;;;17.00;15.50;;;;;3.54;70.69;102657.34;2053756;27;2808619;-75
2024/01/28 04:27:29;;;;;;;;;21.00;15.50;;;;;3.54;70.33;102661.66;2015001;27;2826307;-75
2024/01/28 04:28:41;;;;;;;;;14.67;12.67;;;;;3.55;71.08;102653.91;2040723;27;3512686;-75
2024/01/28 04:29:51;;;;;;;;;18.00;16.00;;;;;3.55;70.53;102651.31;2037981;27;2832558;-75
2024/01/28 04:31:02;;;;;;;;;13.00;11.67;;;;;3.56;70.38;102655.66;2046850;27;3506476;-75
2024/01/28 04:32:14;;;;;;;;;16.00;12.00;;;;;3.55;70.88;102651.31;2043283;27;3522136;-75
2024/01/28 04:33:25;;;;;;;;;15.00;15.00;;;;;3.54;70.39;102652.13;2032376;27;2806512;-75
2024/01/28 04:34:36;;;;;;;;;15.00;13.00;;;;;3.56;70.44;102649.56;2054184;27;2787806;-75
2024/01/28 04:35:47;;;;;;;;;17.00;14.75;;;;;3.56;70.78;102655.66;2057294;27;1844751;-75
2024/01/28 04:36:58;;;;;;;;;16.33;16.33;;;;;3.55;70.51;102653.91;2039635;27;3548109;-75
2024/01/28 04:38:09;;;;;;;;;16.00;13.00;;;;;3.55;70.52;102653.91;2025196;27;2793011;-75
2024/01/28 04:39:20;;;;;;;;;15.00;13.00;;;;;3.56;70.75;102655.66;2044656;27;2796088;-75
2024/01/28 04:40:31;;;;;;;;;16.50;13.25;;;;;3.56;70.43;102657.38;2065727;27;1828899;-75
2024/01/28 04:41:41;;;;;;;;;18.00;17.50;;;;;3.55;70.76;102660.84;2017931;27;2841446;-75
2024/01/28 04:42:52;;;;;;;;;12.50;12.50;;;;;3.55;70.51;102656.53;2030536;27;2788770;-75
2024/01/28 04:44:04;;;;;;;;;16.00;13.00;;;;;3.53;70.55;102658.16;2048730;27;2791918;-75
2024/01/28 04:45:15;;;;;;;;;12.00;10.50;;;;;3.53;70.22;102652.13;2039461;27;2785697;-75
2024/01/28 04:46:26;;;;;;;;;18.00;14.00;;;;;3.52;70.56;102651.22;2039072;27;2802430;-75
2024/01/28 04:47:37;;;;;;;;;11.00;11.00;;;;;3.53;70.88;102650.38;2051264;27;2781519;-75
2024/01/28 04:48:49;;;;;;;;;14.50;10.50;;;;;3.54;70.58;102651.25;2055439;27;1834644;-75
2024/01/28 04:49:59;;;;;;;;;10.67;10.67;;;;;3.52;70.72;102643.44;2040370;27;3511807;-75
2024/01/28 04:51:10;;;;;;;;;15.00;12.50;;;;;3.52;70.94;102640.81;2055705;27;2788861;-75
2024/01/28 04:52:21;;;;;;;;;18.00;10.50;;;;;3.53;70.58;102650.38;2045059;27;2788805;-75
2024/01/28 04:53:32;;;;;;;;;17.50;13.50;;;;;3.52;70.37;102638.22;2008678;27;2795407;-75
2024/01/28 04:54:43;;;;;;;;;16.00;12.50;;;;;3.53;70.66;102644.31;2042510;27;2807956;-75
2024/01/28 04:55:54;;;;;;;;;13.50;13.50;;;;;3.52;70.58;102647.75;2042957;27;2797130;-75
2024/01/28 04:57:05;;;;;;;;;17.00;16.00;;;;;3.51;70.35;102641.66;2019165;27;2823151;-75
2024/01/28 04:58:16;;;;;;;;;11.00;11.00;;;;;3.50;70.48;102645.09;2057753;27;2777830;-75
2024/01/28 04:59:28;;;;;;;;;15.00;12.33;;;;;3.51;70.16;102640.78;2059137;27;3517931;-75
2024/01/28 05:00:38;;;;;;;;;16.00;14.00;;;;;3.49;70.58;102644.22;2030865;27;2801312;-75
2024/01/28 05:01:49;;;;;;;;;12.00;11.50;;;;;3.49;70.77;102639.03;2036588;27;2790921;-75
2024/01/28 05:03:00;;;;;;;;;11.50;11.00;;;;;3.49;70.41;102639.03;2055144;27;2784661;-75
2024/01/28 05:04:12;;;;;;;;;8.00;6.00;;;;;3.49;70.70;102632.94;2059802;27;2738766;-75
2024/01/28 05:05:23;;;;;;;;;12.50;11.00;;;;;3.50;70.56;102629.50;2041693;27;2792021;-75
2024/01/28 05:06:36;;;;;;;;;19.00;12.00;;;;;3.49;70.88;102636.41;2027331;27;2810696;-75
2024/01/28 05:07:47;;;;;;;;;14.33;11.67;;;;;3.51;70.83;102635.59;2025451;27;3499193;-75
2024/01/28 05:08:57;;;;;;;;;11.50;10.00;;;;;3.49;70.65;102635.53;2040506;27;2788129;-75
2024/01/28 05:10:09;;;;;;;;;15.50;11.00;;;;;3.50;70.65;102634.69;2059774;27;2786717;-75
2024/01/28 05:11:21;;;;;;;;;10.60;8.40;;;;;3.49;70.65;102633.81;2058951;27;2755512;-75
2024/01/28 05:12:32;;;;;;;;;17.00;11.50;;;;;3.49;70.43;102631.22;2032175;27;2810710;-75
2024/01/28 05:13:43;;;;;;;;;13.33;13.00;;;;;3.51;70.96;102635.59;2059493;27;3511719;-75
2024/01/28 05:14:54;;;;;;;;;17.00;12.67;;;;;3.51;71.12;102633.00;2055268;27;3535642;-75
2024/01/28 05:16:06;;;;;;;;;13.50;11.75;;;;;3.51;70.65;102635.59;2057031;27;1836700;-75
2024/01/28 05:17:17;;;;;;;;;11.75;11.00;;;;;3.51;71.03;102631.25;2039641;27;1837788;-75
2024/01/28 05:18:27;;;;;;;;;17.00;16.00;;;;;3.53;71.30;102637.38;2032167;27;2821131;-75
2024/01/28 05:19:38;;;;;;;;;13.00;12.00;;;;;3.52;70.79;102633.03;2046315;27;1840913;-75
2024/01/28 05:20:49;;;;;;;;;12.50;12.50;;;;;3.53;70.92;102639.97;2009778;27;2791910;-75
2024/01/28 05:22:00;;;;;;;;;15.33;12.00;;;;;3.53;71.49;102639.97;2042184;27;1833587;-75